Phelps, New York
Current Conditions -  °F | °C
As of 11:53 AM on Sunday 23 Nov 2014 (Local Time) from KPEO Reporting Station
Overcast Overcast  
Wind Chill: 50°   Ceiling: 4800
Heat Index: 50°   Visibility: 10mi
Dew Point: 36°   Wind: 12mph
Humidity: 59%   Direction: 190°S
Pressure: 30.06"   Gusts: NA
Location:  42.96°N, 77.06°W
Report Text: KPEO 231653Z AUTO 19010KT 10SM BKN048 BKN060 OVC075 10/02 A3006 RMK AO2 RAE27 SLP182 P0000 T01000022
Loading
Personal Weather Stations






























Interactive Weather Map New forecast layout! Learn more

10-Day Weather Forecast

Advertisements
Track Severe Weather on mobile